sensor_id;sensor_type;location;lat;lon;timestamp;pressure;altitude;pressure_sealevel;temperature;humidity
34983;BME280;21187;50.976;13.720;2023-03-05T00:00:55;98166.38;;;4.50;56.93
34983;BME280;21187;50.976;13.720;2023-03-05T00:06:04;98153.09;;;4.45;57.15
34983;BME280;21187;50.976;13.720;2023-03-05T00:11:09;98154.53;;;4.52;56.53
34983;BME280;21187;50.976;13.720;2023-03-05T00:16:13;98153.72;;;4.51;56.58
34983;BME280;21187;50.976;13.720;2023-03-05T00:21:19;98154.41;;;4.57;56.29
34983;BME280;21187;50.976;13.720;2023-03-05T00:26:24;98143.19;;;4.55;56.35
34983;BME280;21187;50.976;13.720;2023-03-05T00:31:29;98138.78;;;4.59;55.96
34983;BME280;21187;50.976;13.720;2023-03-05T00:36:31;98139.41;;;4.56;55.82
34983;BME280;21187;50.976;13.720;2023-03-05T00:41:33;98136.22;;;4.45;55.38
34983;BME280;21187;50.976;13.720;2023-03-05T00:46:36;98119.63;;;4.43;55.59
34983;BME280;21187;50.976;13.720;2023-03-05T00:51:38;98125.44;;;4.36;55.63
34983;BME280;21187;50.976;13.720;2023-03-05T00:56:40;98108.41;;;4.32;55.21
34983;BME280;21187;50.976;13.720;2023-03-05T01:01:42;98112.19;;;4.31;55.60
34983;BME280;21187;50.976;13.720;2023-03-05T01:06:43;98109.38;;;4.36;55.01
34983;BME280;21187;50.976;13.720;2023-03-05T01:11:47;98102.59;;;4.39;55.27
34983;BME280;21187;50.976;13.720;2023-03-05T01:16:49;98099.59;;;4.40;55.08
34983;BME280;21187;50.976;13.720;2023-03-05T01:21:51;98095.31;;;4.39;54.72
34983;BME280;21187;50.976;13.720;2023-03-05T01:26:52;98093.53;;;4.26;53.92
34983;BME280;21187;50.976;13.720;2023-03-05T01:31:54;98083.31;;;4.28;53.99
34983;BME280;21187;50.976;13.720;2023-03-05T01:36:56;98080.91;;;4.18;53.11
34983;BME280;21187;50.976;13.720;2023-03-05T01:41:58;98068.28;;;4.09;53.67
34983;BME280;21187;50.976;13.720;2023-03-05T01:47:00;98069.69;;;4.07;53.14
34983;BME280;21187;50.976;13.720;2023-03-05T01:57:11;98070.00;;;4.05;53.49
34983;BME280;21187;50.976;13.720;2023-03-05T02:02:15;98059.56;;;4.04;53.38
34983;BME280;21187;50.976;13.720;2023-03-05T02:07:17;98060.69;;;4.11;53.01
34983;BME280;21187;50.976;13.720;2023-03-05T02:12:19;98059.41;;;4.00;53.09
34983;BME280;21187;50.976;13.720;2023-03-05T02:17:21;98054.50;;;4.02;52.96
34983;BME280;21187;50.976;13.720;2023-03-05T02:22:24;98041.13;;;4.02;53.10
34983;BME280;21187;50.976;13.720;2023-03-05T02:27:29;98042.06;;;3.97;53.53
34983;BME280;21187;50.976;13.720;2023-03-05T02:32:35;98038.53;;;3.88;53.72
34983;BME280;21187;50.976;13.720;2023-03-05T02:37:38;98031.22;;;3.71;53.90
34983;BME280;21187;50.976;13.720;2023-03-05T02:42:41;98015.41;;;3.61;53.88
34983;BME280;21187;50.976;13.720;2023-03-05T02:47:45;98022.50;;;3.65;54.35
34983;BME280;21187;50.976;13.720;2023-03-05T02:52:47;98023.44;;;3.61;54.04
34983;BME280;21187;50.976;13.720;2023-03-05T02:57:50;98024.72;;;3.63;54.54
34983;BME280;21187;50.976;13.720;2023-03-05T03:02:52;98026.13;;;3.61;54.75
34983;BME280;21187;50.976;13.720;2023-03-05T03:07:54;98028.78;;;3.61;54.51
34983;BME280;21187;50.976;13.720;2023-03-05T03:12:56;98026.44;;;3.68;54.15
34983;BME280;21187;50.976;13.720;2023-03-05T03:17:58;98017.00;;;3.62;54.18
34983;BME280;21187;50.976;13.720;2023-03-05T03:23:00;98015.75;;;3.68;53.75
34983;BME280;21187;50.976;13.720;2023-03-05T03:28:02;98015.41;;;3.61;53.15
34983;BME280;21187;50.976;13.720;2023-03-05T03:33:04;98012.34;;;3.54;53.41
34983;BME280;21187;50.976;13.720;2023-03-05T03:38:05;98012.84;;;3.56;52.83
34983;BME280;21187;50.976;13.720;2023-03-05T03:43:07;98000.69;;;3.49;53.33
34983;BME280;21187;50.976;13.720;2023-03-05T03:48:09;97994.88;;;3.47;53.37
34983;BME280;21187;50.976;13.720;2023-03-05T03:53:12;97995.47;;;3.44;52.92
34983;BME280;21187;50.976;13.720;2023-03-05T03:58:14;97987.78;;;3.52;52.61
34983;BME280;21187;50.976;13.720;2023-03-05T04:03:16;97984.75;;;3.44;52.19
34983;BME280;21187;50.976;13.720;2023-03-05T04:08:18;97978.63;;;3.44;52.04
34983;BME280;21187;50.976;13.720;2023-03-05T04:13:20;97984.16;;;3.47;52.79
34983;BME280;21187;50.976;13.720;2023-03-05T04:18:22;97972.81;;;3.50;51.95
34983;BME280;21187;50.976;13.720;2023-03-05T04:23:24;97974.53;;;3.46;51.79
34983;BME280;21187;50.976;13.720;2023-03-05T04:28:26;97965.72;;;3.46;52.33
34983;BME280;21187;50.976;13.720;2023-03-05T04:33:28;97970.41;;;3.40;51.81
34983;BME280;21187;50.976;13.720;2023-03-05T04:38:29;97964.91;;;3.45;51.95
34983;BME280;21187;50.976;13.720;2023-03-05T04:43:32;97959.56;;;3.45;52.23
34983;BME280;21187;50.976;13.720;2023-03-05T04:48:34;97957.38;;;3.47;52.53
34983;BME280;21187;50.976;13.720;2023-03-05T04:53:35;97950.56;;;3.41;52.44
34983;BME280;21187;50.976;13.720;2023-03-05T04:58:37;97947.25;;;3.36;52.48
34983;BME280;21187;50.976;13.720;2023-03-05T05:03:39;97947.69;;;3.29;53.26
34983;BME280;21187;50.976;13.720;2023-03-05T05:08:41;97954.75;;;3.25;53.38
34983;BME280;21187;50.976;13.720;2023-03-05T05:13:44;97953.75;;;3.21;53.89
34983;BME280;21187;50.976;13.720;2023-03-05T05:18:45;97942.41;;;3.15;54.15
34983;BME280;21187;50.976;13.720;2023-03-05T05:23:47;97947.88;;;3.10;54.73
34983;BME280;21187;50.976;13.720;2023-03-05T05:28:49;97953.53;;;3.08;54.48
34983;BME280;21187;50.976;13.720;2023-03-05T05:33:51;97951.94;;;3.07;55.08
34983;BME280;21187;50.976;13.720;2023-03-05T05:38:53;97936.09;;;3.11;54.71
34983;BME280;21187;50.976;13.720;2023-03-05T05:43:55;97947.56;;;3.11;54.96
34983;BME280;21187;50.976;13.720;2023-03-05T05:48:56;97940.34;;;3.12;54.83
34983;BME280;21187;50.976;13.720;2023-03-05T05:53:58;97941.94;;;3.13;54.73
34983;BME280;21187;50.976;13.720;2023-03-05T05:59:00;97945.88;;;3.15;53.84
34983;BME280;21187;50.976;13.720;2023-03-05T06:04:02;97941.97;;;3.22;53.70
34983;BME280;21187;50.976;13.720;2023-03-05T06:09:04;97946.41;;;3.26;53.62
34983;BME280;21187;50.976;13.720;2023-03-05T06:14:06;97932.53;;;3.24;53.26
34983;BME280;21187;50.976;13.720;2023-03-05T06:19:13;97932.09;;;3.31;53.44
34983;BME280;21187;50.976;13.720;2023-03-05T06:24:16;97933.72;;;3.41;53.05
34983;BME280;21187;50.976;13.720;2023-03-05T06:29:19;97934.63;;;3.36;53.28
34983;BME280;21187;50.976;13.720;2023-03-05T06:34:21;97935.00;;;3.43;52.96
34983;BME280;21187;50.976;13.720;2023-03-05T06:39:23;97930.44;;;3.44;52.88
34983;BME280;21187;50.976;13.720;2023-03-05T06:44:25;97936.09;;;3.42;53.16
34983;BME280;21187;50.976;13.720;2023-03-05T06:49:27;97934.56;;;3.50;53.37
34983;BME280;21187;50.976;13.720;2023-03-05T06:54:29;97932.19;;;3.48;52.36
34983;BME280;21187;50.976;13.720;2023-03-05T06:59:30;97933.41;;;3.42;52.85
34983;BME280;21187;50.976;13.720;2023-03-05T07:04:32;97929.97;;;3.50;52.87
34983;BME280;21187;50.976;13.720;2023-03-05T07:09:34;97931.75;;;3.64;52.50
34983;BME280;21187;50.976;13.720;2023-03-05T07:14:43;97932.72;;;3.59;52.87
34983;BME280;21187;50.976;13.720;2023-03-05T07:19:45;97931.03;;;3.72;52.74
34983;BME280;21187;50.976;13.720;2023-03-05T07:24:46;97925.25;;;3.47;53.63
34983;BME280;21187;50.976;13.720;2023-03-05T07:29:48;97930.94;;;3.55;53.23
34983;BME280;21187;50.976;13.720;2023-03-05T07:34:50;97927.22;;;3.73;52.95
34983;BME280;21187;50.976;13.720;2023-03-05T07:39:52;97930.41;;;3.75;53.02
34983;BME280;21187;50.976;13.720;2023-03-05T07:44:54;97926.00;;;3.79;53.25
34983;BME280;21187;50.976;13.720;2023-03-05T07:49:55;97926.31;;;3.87;53.55
34983;BME280;21187;50.976;13.720;2023-03-05T07:54:57;97924.31;;;4.01;53.30
34983;BME280;21187;50.976;13.720;2023-03-05T07:59:59;97933.59;;;3.95;54.42
34983;BME280;21187;50.976;13.720;2023-03-05T08:05:01;97926.94;;;3.83;54.23
34983;BME280;21187;50.976;13.720;2023-03-05T08:10:03;97911.81;;;3.88;55.08
34983;BME280;21187;50.976;13.720;2023-03-05T08:15:06;97920.66;;;3.88;56.03
34983;BME280;21187;50.976;13.720;2023-03-05T08:20:09;97916.44;;;4.05;55.61
34983;BME280;21187;50.976;13.720;2023-03-05T08:25:11;97904.78;;;4.18;56.02
34983;BME280;21187;50.976;13.720;2023-03-05T08:30:16;97902.13;;;4.27;56.02
34983;BME280;21187;50.976;13.720;2023-03-05T08:35:18;97903.38;;;4.21;56.89
34983;BME280;21187;50.976;13.720;2023-03-05T08:40:20;97890.75;;;4.30;57.06
34983;BME280;21187;50.976;13.720;2023-03-05T08:45:22;97880.06;;;4.47;56.58
34983;BME280;21187;50.976;13.720;2023-03-05T08:50:24;97891.88;;;4.73;56.46
34983;BME280;21187;50.976;13.720;2023-03-05T08:55:26;97876.34;;;4.96;55.50
34983;BME280;21187;50.976;13.720;2023-03-05T09:05:50;97880.34;;;4.72;56.17
34983;BME280;21187;50.976;13.720;2023-03-05T09:10:52;97877.53;;;4.69;56.67
34983;BME280;21187;50.976;13.720;2023-03-05T09:15:59;97870.41;;;4.64;56.14
34983;BME280;21187;50.976;13.720;2023-03-05T09:21:09;97871.06;;;4.61;56.44
34983;BME280;21187;50.976;13.720;2023-03-05T09:26:12;97865.38;;;4.54;57.09
34983;BME280;21187;50.976;13.720;2023-03-05T09:31:16;97859.69;;;4.38;57.35
34983;BME280;21187;50.976;13.720;2023-03-05T09:36:23;97862.41;;;4.29;57.64
34983;BME280;21187;50.976;13.720;2023-03-05T09:41:33;97858.59;;;4.30;57.53
34983;BME280;21187;50.976;13.720;2023-03-05T09:46:52;97858.59;;;4.30;58.08
34983;BME280;21187;50.976;13.720;2023-03-05T09:52:01;97842.84;;;4.37;58.46
34983;BME280;21187;50.976;13.720;2023-03-05T10:02:31;97830.94;;;4.64;57.95
34983;BME280;21187;50.976;13.720;2023-03-05T10:07:40;97827.78;;;5.19;57.86
34983;BME280;21187;50.976;13.720;2023-03-05T10:12:45;97825.56;;;5.80;56.58
34983;BME280;21187;50.976;13.720;2023-03-05T10:23:30;97805.16;;;6.64;54.30
34983;BME280;21187;50.976;13.720;2023-03-05T10:28:37;97797.44;;;6.75;53.74
34983;BME280;21187;50.976;13.720;2023-03-05T10:45:20;97785.66;;;6.67;50.46
34983;BME280;21187;50.976;13.720;2023-03-05T10:50:24;97776.13;;;6.57;51.36
34983;BME280;21187;50.976;13.720;2023-03-05T10:55:26;97777.56;;;6.55;51.69
34983;BME280;21187;50.976;13.720;2023-03-05T11:00:28;97786.47;;;6.46;51.16
34983;BME280;21187;50.976;13.720;2023-03-05T11:10:36;97780.88;;;5.97;52.11
34983;BME280;21187;50.976;13.720;2023-03-05T11:15:38;97784.34;;;5.76;52.21
34983;BME280;21187;50.976;13.720;2023-03-05T11:21:19;97760.22;;;5.46;53.35
34983;BME280;21187;50.976;13.720;2023-03-05T11:26:22;97772.53;;;5.47;53.68
34983;BME280;21187;50.976;13.720;2023-03-05T11:31:30;97761.16;;;5.50;53.31
34983;BME280;21187;50.976;13.720;2023-03-05T11:52:23;97743.25;;;5.33;54.38
34983;BME280;21187;50.976;13.720;2023-03-05T11:57:32;97736.81;;;5.26;54.52
34983;BME280;21187;50.976;13.720;2023-03-05T12:02:36;97735.41;;;5.20;54.81
34983;BME280;21187;50.976;13.720;2023-03-05T12:07:41;97729.03;;;5.03;55.39
34983;BME280;21187;50.976;13.720;2023-03-05T12:18:05;97709.38;;;4.90;55.66
34983;BME280;21187;50.976;13.720;2023-03-05T12:23:12;97708.19;;;5.00;56.22
34983;BME280;21187;50.976;13.720;2023-03-05T12:33:43;97686.28;;;5.28;55.82
34983;BME280;21187;50.976;13.720;2023-03-05T13:00:00;97666.53;;;5.24;54.54
34983;BME280;21187;50.976;13.720;2023-03-05T13:05:25;97658.56;;;5.15;55.26
34983;BME280;21187;50.976;13.720;2023-03-05T13:10:29;97655.34;;;5.22;55.35
34983;BME280;21187;50.976;13.720;2023-03-05T13:15:31;97642.31;;;5.32;55.05
34983;BME280;21187;50.976;13.720;2023-03-05T13:20:35;97631.91;;;5.31;55.16
34983;BME280;21187;50.976;13.720;2023-03-05T13:25:42;97634.41;;;5.36;55.04
34983;BME280;21187;50.976;13.720;2023-03-05T13:30:52;97637.13;;;5.48;54.95
34983;BME280;21187;50.976;13.720;2023-03-05T13:35:55;97631.31;;;5.46;54.18
34983;BME280;21187;50.976;13.720;2023-03-05T13:51:42;97604.50;;;5.59;54.06
34983;BME280;21187;50.976;13.720;2023-03-05T13:56:50;97599.13;;;5.59;53.74
34983;BME280;21187;50.976;13.720;2023-03-05T14:01:52;97593.75;;;5.59;53.80
34983;BME280;21187;50.976;13.720;2023-03-05T14:06:58;97584.47;;;5.56;53.57
34983;BME280;21187;50.976;13.720;2023-03-05T14:22:34;97579.25;;;5.39;54.17
34983;BME280;21187;50.976;13.720;2023-03-05T14:27:36;97571.53;;;5.37;53.90
34983;BME280;21187;50.976;13.720;2023-03-05T14:32:38;97580.44;;;5.29;53.98
34983;BME280;21187;50.976;13.720;2023-03-05T14:37:40;97579.53;;;5.25;54.46
34983;BME280;21187;50.976;13.720;2023-03-05T14:47:51;97586.84;;;4.94;54.66
34983;BME280;21187;50.976;13.720;2023-03-05T14:52:56;97580.81;;;4.76;55.29
34983;BME280;21187;50.976;13.720;2023-03-05T14:58:03;97575.38;;;4.64;56.30
34983;BME280;21187;50.976;13.720;2023-03-05T15:03:11;97587.22;;;4.63;56.22
34983;BME280;21187;50.976;13.720;2023-03-05T15:08:16;97581.34;;;4.40;57.13
34983;BME280;21187;50.976;13.720;2023-03-05T15:13:19;97583.97;;;4.19;58.21
34983;BME280;21187;50.976;13.720;2023-03-05T15:18:22;97579.88;;;4.12;57.66
34983;BME280;21187;50.976;13.720;2023-03-05T15:23:24;97571.38;;;4.10;58.07
34983;BME280;21187;50.976;13.720;2023-03-05T15:28:26;97568.16;;;4.26;57.22
34983;BME280;21187;50.976;13.720;2023-03-05T15:38:43;97563.47;;;4.23;57.75
34983;BME280;21187;50.976;13.720;2023-03-05T15:43:47;97561.38;;;4.28;57.24
34983;BME280;21187;50.976;13.720;2023-03-05T15:48:49;97557.34;;;4.43;57.08
34983;BME280;21187;50.976;13.720;2023-03-05T15:53:50;97554.78;;;4.56;56.90
34983;BME280;21187;50.976;13.720;2023-03-05T15:58:52;97554.47;;;4.48;57.27
34983;BME280;21187;50.976;13.720;2023-03-05T16:03:54;97549.13;;;4.48;57.04
34983;BME280;21187;50.976;13.720;2023-03-05T16:09:01;97545.06;;;4.42;56.77
34983;BME280;21187;50.976;13.720;2023-03-05T16:14:06;97534.97;;;4.39;57.20
34983;BME280;21187;50.976;13.720;2023-03-05T16:19:11;97544.41;;;4.45;56.48
34983;BME280;21187;50.976;13.720;2023-03-05T16:24:14;97543.13;;;4.52;56.58
34983;BME280;21187;50.976;13.720;2023-03-05T16:29:16;97540.13;;;4.53;56.33
34983;BME280;21187;50.976;13.720;2023-03-05T16:34:18;97530.97;;;4.54;56.49
34983;BME280;21187;50.976;13.720;2023-03-05T16:39:20;97532.66;;;4.59;56.64
34983;BME280;21187;50.976;13.720;2023-03-05T16:44:23;97529.53;;;4.57;56.52
34983;BME280;21187;50.976;13.720;2023-03-05T16:49:24;97540.84;;;4.62;56.70
34983;BME280;21187;50.976;13.720;2023-03-05T16:54:26;97537.44;;;4.53;56.57
34983;BME280;21187;50.976;13.720;2023-03-05T16:59:28;97525.72;;;4.58;56.33
34983;BME280;21187;50.976;13.720;2023-03-05T17:04:30;97535.53;;;4.54;56.59
34983;BME280;21187;50.976;13.720;2023-03-05T17:09:32;97541.69;;;4.54;56.10
34983;BME280;21187;50.976;13.720;2023-03-05T17:14:34;97539.59;;;4.60;56.16
34983;BME280;21187;50.976;13.720;2023-03-05T17:19:36;97540.66;;;4.68;55.95
34983;BME280;21187;50.976;13.720;2023-03-05T17:24:38;97539.06;;;4.66;55.65
34983;BME280;21187;50.976;13.720;2023-03-05T17:29:44;97526.25;;;4.72;55.70
34983;BME280;21187;50.976;13.720;2023-03-05T17:34:46;97531.16;;;4.70;55.86
34983;BME280;21187;50.976;13.720;2023-03-05T17:39:48;97540.91;;;4.75;55.91
34983;BME280;21187;50.976;13.720;2023-03-05T17:44:49;97545.13;;;4.85;54.90
34983;BME280;21187;50.976;13.720;2023-03-05T17:49:51;97541.03;;;4.78;55.62
34983;BME280;21187;50.976;13.720;2023-03-05T17:54:53;97535.69;;;4.78;55.84
34983;BME280;21187;50.976;13.720;2023-03-05T17:59:56;97536.16;;;4.80;55.41
34983;BME280;21187;50.976;13.720;2023-03-05T18:04:58;97543.25;;;4.76;55.52
34983;BME280;21187;50.976;13.720;2023-03-05T18:10:00;97540.78;;;4.71;55.17
34983;BME280;21187;50.976;13.720;2023-03-05T18:15:04;97544.31;;;4.63;55.76
34983;BME280;21187;50.976;13.720;2023-03-05T18:20:08;97533.19;;;4.73;55.94
34983;BME280;21187;50.976;13.720;2023-03-05T18:25:10;97530.78;;;4.80;54.90
34983;BME280;21187;50.976;13.720;2023-03-05T18:30:12;97539.56;;;4.90;55.29
34983;BME280;21187;50.976;13.720;2023-03-05T18:35:15;97518.66;;;4.95;54.99
34983;BME280;21187;50.976;13.720;2023-03-05T18:40:20;97531.22;;;5.04;54.67
34983;BME280;21187;50.976;13.720;2023-03-05T18:50:38;97527.97;;;4.98;55.07
34983;BME280;21187;50.976;13.720;2023-03-05T18:55:40;97530.13;;;4.83;55.29
34983;BME280;21187;50.976;13.720;2023-03-05T19:00:44;97531.28;;;4.74;55.20
34983;BME280;21187;50.976;13.720;2023-03-05T19:05:47;97532.34;;;4.81;55.60
34983;BME280;21187;50.976;13.720;2023-03-05T19:10:50;97538.63;;;4.86;55.27
34983;BME280;21187;50.976;13.720;2023-03-05T19:21:22;97528.81;;;4.90;55.26
34983;BME280;21187;50.976;13.720;2023-03-05T19:26:24;97536.59;;;4.82;55.36
34983;BME280;21187;50.976;13.720;2023-03-05T19:31:26;97538.84;;;4.80;55.41
34983;BME280;21187;50.976;13.720;2023-03-05T19:36:29;97526.06;;;4.77;55.47
34983;BME280;21187;50.976;13.720;2023-03-05T19:41:31;97531.94;;;4.71;56.03
34983;BME280;21187;50.976;13.720;2023-03-05T19:46:33;97529.44;;;4.65;56.21
34983;BME280;21187;50.976;13.720;2023-03-05T19:51:35;97498.78;;;4.54;56.95
34983;BME280;21187;50.976;13.720;2023-03-05T19:56:38;97490.13;;;4.48;56.77
34983;BME280;21187;50.976;13.720;2023-03-05T20:01:47;97489.22;;;4.44;56.81
34983;BME280;21187;50.976;13.720;2023-03-05T20:06:49;97496.88;;;4.55;56.72
34983;BME280;21187;50.976;13.720;2023-03-05T20:11:51;97487.66;;;4.64;56.17
34983;BME280;21187;50.976;13.720;2023-03-05T20:16:53;97482.88;;;4.70;56.04
34983;BME280;21187;50.976;13.720;2023-03-05T20:21:55;97483.34;;;4.72;56.32
34983;BME280;21187;50.976;13.720;2023-03-05T20:26:57;97481.19;;;4.65;56.62
34983;BME280;21187;50.976;13.720;2023-03-05T20:32:00;97476.53;;;4.54;56.53
34983;BME280;21187;50.976;13.720;2023-03-05T20:37:02;97463.72;;;4.38;57.46
34983;BME280;21187;50.976;13.720;2023-03-05T20:42:05;97455.88;;;4.33;57.09
34983;BME280;21187;50.976;13.720;2023-03-05T20:47:07;97453.38;;;4.28;57.75
34983;BME280;21187;50.976;13.720;2023-03-05T20:52:32;97444.88;;;4.26;57.52
34983;BME280;21187;50.976;13.720;2023-03-05T20:57:34;97446.13;;;4.28;57.69
34983;BME280;21187;50.976;13.720;2023-03-05T21:02:36;97431.28;;;4.31;57.62
34983;BME280;21187;50.976;13.720;2023-03-05T21:07:38;97425.91;;;4.31;57.13
34983;BME280;21187;50.976;13.720;2023-03-05T21:12:42;97412.69;;;4.26;57.38
34983;BME280;21187;50.976;13.720;2023-03-05T21:17:44;97417.28;;;4.25;57.09
34983;BME280;21187;50.976;13.720;2023-03-05T21:22:46;97414.00;;;4.20;57.64
34983;BME280;21187;50.976;13.720;2023-03-05T21:28:06;97417.19;;;4.13;57.64
34983;BME280;21187;50.976;13.720;2023-03-05T21:33:20;97404.13;;;4.11;57.61
34983;BME280;21187;50.976;13.720;2023-03-05T21:38:24;97398.00;;;4.11;57.28
34983;BME280;21187;50.976;13.720;2023-03-05T21:43:26;97394.50;;;4.10;57.75
34983;BME280;21187;50.976;13.720;2023-03-05T21:48:29;97393.41;;;4.11;57.50
34983;BME280;21187;50.976;13.720;2023-03-05T21:53:31;97380.94;;;4.15;57.70
34983;BME280;21187;50.976;13.720;2023-03-05T21:58:34;97371.66;;;4.13;57.77
34983;BME280;21187;50.976;13.720;2023-03-05T22:03:36;97361.72;;;4.13;57.24
34983;BME280;21187;50.976;13.720;2023-03-05T22:08:37;97366.44;;;4.16;57.63
34983;BME280;21187;50.976;13.720;2023-03-05T22:13:40;97357.00;;;4.10;56.99
34983;BME280;21187;50.976;13.720;2023-03-05T22:18:42;97361.13;;;4.08;57.35
34983;BME280;21187;50.976;13.720;2023-03-05T22:23:44;97353.88;;;4.08;57.24
34983;BME280;21187;50.976;13.720;2023-03-05T22:28:45;97359.38;;;4.12;56.73
34983;BME280;21187;50.976;13.720;2023-03-05T22:33:48;97345.84;;;4.08;57.34
34983;BME280;21187;50.976;13.720;2023-03-05T22:38:50;97343.16;;;4.08;57.48
34983;BME280;21187;50.976;13.720;2023-03-05T22:43:52;97345.38;;;4.06;56.82
34983;BME280;21187;50.976;13.720;2023-03-05T22:48:54;97350.09;;;4.09;56.81
34983;BME280;21187;50.976;13.720;2023-03-05T22:53:56;97348.97;;;4.10;57.10
34983;BME280;21187;50.976;13.720;2023-03-05T22:58:58;97347.84;;;4.11;56.73
34983;BME280;21187;50.976;13.720;2023-03-05T23:04:01;97348.00;;;4.15;56.84
34983;BME280;21187;50.976;13.720;2023-03-05T23:09:09;97344.31;;;4.20;56.45
34983;BME280;21187;50.976;13.720;2023-03-05T23:14:11;97343.22;;;4.21;56.35
34983;BME280;21187;50.976;13.720;2023-03-05T23:19:13;97341.00;;;4.23;56.47
34983;BME280;21187;50.976;13.720;2023-03-05T23:24:14;97344.31;;;4.20;56.38
34983;BME280;21187;50.976;13.720;2023-03-05T23:29:16;97327.13;;;4.21;56.26
34983;BME280;21187;50.976;13.720;2023-03-05T23:34:18;97327.13;;;4.21;56.00
34983;BME280;21187;50.976;13.720;2023-03-05T23:39:20;97325.25;;;4.21;55.90
34983;BME280;21187;50.976;13.720;2023-03-05T23:44:22;97324.47;;;4.21;55.92
34983;BME280;21187;50.976;13.720;2023-03-05T23:49:24;97329.19;;;4.24;55.84
34983;BME280;21187;50.976;13.720;2023-03-05T23:54:26;97319.22;;;4.24;56.25
34983;BME280;21187;50.976;13.720;2023-03-05T23:59:27;97320.00;;;4.25;55.78
